sensor_id;sensor_type;location;lat;lon;timestamp;pressure;altitude;pressure_sealevel;temperature;humidity
6094;BME280;19964;42.060;24.700;2022-07-30T00:01:16;97510.84;;;20.61;63.82
6094;BME280;19964;42.060;24.700;2022-07-30T00:03:43;97501.84;;;20.62;63.94
6094;BME280;19964;42.060;24.700;2022-07-30T00:06:10;97475.78;;;20.47;64.29
6094;BME280;19964;42.060;24.700;2022-07-30T00:08:37;97527.97;;;20.58;64.58
6094;BME280;19964;42.060;24.700;2022-07-30T00:11:04;97526.34;;;20.62;65.22
6094;BME280;19964;42.060;24.700;2022-07-30T00:13:31;97498.91;;;20.50;65.10
6094;BME280;19964;42.060;24.700;2022-07-30T00:15:58;97492.00;;;20.54;65.30
6094;BME280;19964;42.060;24.700;2022-07-30T00:18:27;97516.09;;;20.61;65.15
6094;BME280;19964;42.060;24.700;2022-07-30T00:20:54;97509.03;;;20.24;66.03
6094;BME280;19964;42.060;24.700;2022-07-30T00:23:21;97427.72;;;19.72;66.09
6094;BME280;19964;42.060;24.700;2022-07-30T00:25:48;97510.25;;;20.31;65.83
6094;BME280;19964;42.060;24.700;2022-07-30T00:28:15;97519.19;;;20.30;65.79
6094;BME280;19964;42.060;24.700;2022-07-30T00:30:42;97512.47;;;20.24;65.88
6094;BME280;19964;42.060;24.700;2022-07-30T00:33:09;97501.28;;;20.14;66.04
6094;BME280;19964;42.060;24.700;2022-07-30T00:35:38;97397.25;;;19.52;66.21
6094;BME280;19964;42.060;24.700;2022-07-30T00:38:05;97518.69;;;20.28;66.41
6094;BME280;19964;42.060;24.700;2022-07-30T00:40:32;97511.69;;;20.24;66.67
6094;BME280;19964;42.060;24.700;2022-07-30T00:42:59;97496.84;;;20.09;66.68
6094;BME280;19964;42.060;24.700;2022-07-30T00:45:26;97474.69;;;19.97;66.81
6094;BME280;19964;42.060;24.700;2022-07-30T00:47:53;97438.38;;;19.80;66.23
6094;BME280;19964;42.060;24.700;2022-07-30T00:50:20;97497.00;;;20.18;66.54
6094;BME280;19964;42.060;24.700;2022-07-30T00:52:49;97504.09;;;20.22;66.34
6094;BME280;19964;42.060;24.700;2022-07-30T00:55:16;97504.09;;;20.22;66.48
6094;BME280;19964;42.060;24.700;2022-07-30T00:57:43;97450.38;;;19.86;66.67
6094;BME280;19964;42.060;24.700;2022-07-30T01:00:13;97501.41;;;20.04;67.05
6094;BME280;19964;42.060;24.700;2022-07-30T01:02:41;97487.28;;;19.81;68.09
6094;BME280;19964;42.060;24.700;2022-07-30T01:05:09;97446.09;;;19.53;67.71
6094;BME280;19964;42.060;24.700;2022-07-30T01:07:36;97493.53;;;19.85;68.25
6094;BME280;19964;42.060;24.700;2022-07-30T01:10:07;97495.22;;;19.95;67.87
6094;BME280;19964;42.060;24.700;2022-07-30T01:12:35;97490.19;;;19.98;67.57
6094;BME280;19964;42.060;24.700;2022-07-30T01:15:05;97496.91;;;19.86;68.38
6094;BME280;19964;42.060;24.700;2022-07-30T01:17:33;97494.78;;;19.88;68.22
6094;BME280;19964;42.060;24.700;2022-07-30T01:20:04;97473.34;;;19.81;67.81
6094;BME280;19964;42.060;24.700;2022-07-30T01:22:51;97505.88;;;19.85;68.18
6094;BME280;19964;42.060;24.700;2022-07-30T01:25:39;97497.66;;;19.91;68.33
6094;BME280;19964;42.060;24.700;2022-07-30T01:28:11;97471.53;;;19.76;68.02
6094;BME280;19964;42.060;24.700;2022-07-30T01:30:41;97498.41;;;19.92;68.14
6094;BME280;19964;42.060;24.700;2022-07-30T01:33:11;97491.88;;;19.71;68.14
6094;BME280;19964;42.060;24.700;2022-07-30T01:35:40;97481.47;;;19.61;68.46
6094;BME280;19964;42.060;24.700;2022-07-30T01:38:09;97493.19;;;19.49;69.22
6094;BME280;19964;42.060;24.700;2022-07-30T01:40:41;97472.50;;;19.43;69.23
6094;BME280;19964;42.060;24.700;2022-07-30T01:43:10;97484.03;;;19.47;69.42
6094;BME280;19964;42.060;24.700;2022-07-30T01:45:39;97493.06;;;19.60;69.37
6094;BME280;19964;42.060;24.700;2022-07-30T01:48:08;97491.56;;;19.53;69.79
6094;BME280;19964;42.060;24.700;2022-07-30T01:50:36;97481.47;;;19.42;69.71
6094;BME280;19964;42.060;24.700;2022-07-30T01:53:04;97470.78;;;19.33;70.34
6094;BME280;19964;42.060;24.700;2022-07-30T01:55:35;97469.50;;;19.31;70.71
6094;BME280;19964;42.060;24.700;2022-07-30T01:58:06;97472.63;;;19.33;71.18
6094;BME280;19964;42.060;24.700;2022-07-30T02:00:37;97456.59;;;19.34;70.51
6094;BME280;19964;42.060;24.700;2022-07-30T02:03:05;97463.91;;;19.37;70.30
6094;BME280;19964;42.060;24.700;2022-07-30T02:05:34;97479.56;;;19.47;70.33
6094;BME280;19964;42.060;24.700;2022-07-30T02:08:05;97485.97;;;19.60;70.23
6094;BME280;19964;42.060;24.700;2022-07-30T02:10:36;97477.22;;;19.46;70.11
6094;BME280;19964;42.060;24.700;2022-07-30T02:13:09;97467.81;;;19.40;70.32
6094;BME280;19964;42.060;24.700;2022-07-30T02:15:41;97489.66;;;19.59;69.88
6094;BME280;19964;42.060;24.700;2022-07-30T02:18:12;97480.97;;;19.59;70.01
6094;BME280;19964;42.060;24.700;2022-07-30T02:20:47;97482.47;;;19.65;69.24
6094;BME280;19964;42.060;24.700;2022-07-30T02:23:17;97465.78;;;19.56;69.55
6094;BME280;19964;42.060;24.700;2022-07-30T02:25:49;97491.22;;;19.60;69.42
6094;BME280;19964;42.060;24.700;2022-07-30T02:28:19;97467.63;;;19.55;69.05
6094;BME280;19964;42.060;24.700;2022-07-30T02:30:50;97485.13;;;19.65;69.57
6094;BME280;19964;42.060;24.700;2022-07-30T02:33:20;97492.19;;;19.45;70.07
6094;BME280;19964;42.060;24.700;2022-07-30T02:35:49;97483.47;;;19.26;70.89
6094;BME280;19964;42.060;24.700;2022-07-30T02:38:17;97475.88;;;19.25;70.89
6094;BME280;19964;42.060;24.700;2022-07-30T02:40:47;97495.16;;;19.39;70.59
6094;BME280;19964;42.060;24.700;2022-07-30T02:43:14;97485.25;;;19.31;70.60
6094;BME280;19964;42.060;24.700;2022-07-30T02:45:45;97392.75;;;18.63;71.20
6094;BME280;19964;42.060;24.700;2022-07-30T02:48:14;97473.38;;;19.10;71.15
6094;BME280;19964;42.060;24.700;2022-07-30T02:50:43;97478.19;;;19.03;72.09
6094;BME280;19964;42.060;24.700;2022-07-30T02:53:11;97476.06;;;19.05;72.05
6094;BME280;19964;42.060;24.700;2022-07-30T02:55:41;97476.00;;;19.10;72.11
6094;BME280;19964;42.060;24.700;2022-07-30T02:58:09;97451.09;;;19.07;71.46
6094;BME280;19964;42.060;24.700;2022-07-30T03:00:37;97436.13;;;19.08;71.10
6094;BME280;19964;42.060;24.700;2022-07-30T03:03:07;97475.88;;;19.25;71.76
6094;BME280;19964;42.060;24.700;2022-07-30T03:05:35;97393.63;;;18.58;72.40
6094;BME280;19964;42.060;24.700;2022-07-30T03:08:04;97464.00;;;19.04;72.72
6094;BME280;19964;42.060;24.700;2022-07-30T03:10:33;97453.38;;;18.90;72.88
6094;BME280;19964;42.060;24.700;2022-07-30T03:13:03;97448.91;;;18.91;73.03
6094;BME280;19964;42.060;24.700;2022-07-30T03:15:33;97433.31;;;18.76;73.56
6094;BME280;19964;42.060;24.700;2022-07-30T03:18:02;97455.97;;;18.95;73.69
6094;BME280;19964;42.060;24.700;2022-07-30T03:20:33;97459.53;;;19.04;73.30
6094;BME280;19964;42.060;24.700;2022-07-30T03:23:02;97456.72;;;19.19;72.80
6094;BME280;19964;42.060;24.700;2022-07-30T03:25:30;97453.78;;;19.26;72.92
6094;BME280;19964;42.060;24.700;2022-07-30T03:28:00;97429.44;;;19.15;72.58
6094;BME280;19964;42.060;24.700;2022-07-30T03:30:28;97457.59;;;19.38;72.22
6094;BME280;19964;42.060;24.700;2022-07-30T03:32:56;97434.16;;;19.42;72.14
6094;BME280;19964;42.060;24.700;2022-07-30T03:35:24;97458.03;;;19.64;71.96
6094;BME280;19964;42.060;24.700;2022-07-30T03:37:53;97456.56;;;19.77;71.65
6094;BME280;19964;42.060;24.700;2022-07-30T03:40:21;97449.66;;;19.81;70.77
6094;BME280;19964;42.060;24.700;2022-07-30T03:42:49;97459.59;;;19.84;71.11
6094;BME280;19964;42.060;24.700;2022-07-30T03:45:17;97426.44;;;19.69;71.18
6094;BME280;19964;42.060;24.700;2022-07-30T03:47:46;97448.03;;;19.85;71.26
6094;BME280;19964;42.060;24.700;2022-07-30T03:50:13;97470.38;;;20.24;70.51
6094;BME280;19964;42.060;24.700;2022-07-30T03:52:41;97480.22;;;20.32;70.75
6094;BME280;19964;42.060;24.700;2022-07-30T03:55:10;97481.69;;;20.57;70.00
6094;BME280;19964;42.060;24.700;2022-07-30T03:57:37;97470.53;;;20.47;69.96
6094;BME280;19964;42.060;24.700;2022-07-30T04:00:06;97477.31;;;20.66;69.73
6094;BME280;19964;42.060;24.700;2022-07-30T04:02:40;97460.63;;;20.71;69.33
6094;BME280;19964;42.060;24.700;2022-07-30T04:05:08;97441.25;;;20.80;68.96
6094;BME280;19964;42.060;24.700;2022-07-30T04:07:35;97448.00;;;21.00;68.66
6094;BME280;19964;42.060;24.700;2022-07-30T04:10:03;97474.97;;;21.24;68.18
6094;BME280;19964;42.060;24.700;2022-07-30T04:12:31;97483.56;;;21.30;68.19
6094;BME280;19964;42.060;24.700;2022-07-30T04:14:59;97481.47;;;21.40;68.44
6094;BME280;19964;42.060;24.700;2022-07-30T04:17:30;97465.66;;;21.40;67.90
6094;BME280;19964;42.060;24.700;2022-07-30T04:20:02;97487.63;;;21.63;67.46
6094;BME280;19964;42.060;24.700;2022-07-30T04:22:33;97489.28;;;21.86;67.13
6094;BME280;19964;42.060;24.700;2022-07-30T04:25:01;97493.31;;;22.05;66.53
6094;BME280;19964;42.060;24.700;2022-07-30T04:27:31;97492.47;;;22.19;65.75
6094;BME280;19964;42.060;24.700;2022-07-30T04:29:59;97470.19;;;22.25;65.18
6094;BME280;19964;42.060;24.700;2022-07-30T04:32:26;97469.44;;;22.55;64.63
6094;BME280;19964;42.060;24.700;2022-07-30T04:34:54;97447.06;;;22.30;64.11
6094;BME280;19964;42.060;24.700;2022-07-30T04:37:23;97492.81;;;22.92;64.10
6094;BME280;19964;42.060;24.700;2022-07-30T04:39:50;97474.31;;;23.23;62.90
6094;BME280;19964;42.060;24.700;2022-07-30T04:42:19;97481.56;;;23.56;62.19
6094;BME280;19964;42.060;24.700;2022-07-30T04:44:48;97495.16;;;23.80;61.92
6094;BME280;19964;42.060;24.700;2022-07-30T04:47:15;97469.16;;;23.82;61.56
6094;BME280;19964;42.060;24.700;2022-07-30T04:49:43;97472.63;;;24.09;61.00
6094;BME280;19964;42.060;24.700;2022-07-30T04:52:12;97488.94;;;24.45;60.25
6094;BME280;19964;42.060;24.700;2022-07-30T04:54:43;97466.03;;;24.57;59.12
6094;BME280;19964;42.060;24.700;2022-07-30T04:57:12;97493.06;;;24.97;59.00
6094;BME280;19964;42.060;24.700;2022-07-30T04:59:39;97471.53;;;24.99;58.48
6094;BME280;19964;42.060;24.700;2022-07-30T05:02:08;97483.09;;;25.32;57.51
6094;BME280;19964;42.060;24.700;2022-07-30T05:04:37;97489.06;;;25.58;56.66
6094;BME280;19964;42.060;24.700;2022-07-30T05:07:04;97459.88;;;25.58;56.37
6094;BME280;19964;42.060;24.700;2022-07-30T05:09:32;97491.84;;;26.11;55.43
6094;BME280;19964;42.060;24.700;2022-07-30T05:11:59;97481.19;;;26.53;54.67
6094;BME280;19964;42.060;24.700;2022-07-30T05:14:41;97492.38;;;26.91;54.41
6094;BME280;19964;42.060;24.700;2022-07-30T05:17:09;97436.31;;;26.63;51.71
6094;BME280;19964;42.060;24.700;2022-07-30T05:19:36;97486.75;;;27.41;51.61
6094;BME280;19964;42.060;24.700;2022-07-30T05:22:03;97486.94;;;27.72;51.67
6094;BME280;19964;42.060;24.700;2022-07-30T05:24:30;97483.66;;;27.63;50.96
6094;BME280;19964;42.060;24.700;2022-07-30T05:26:58;97498.13;;;26.93;53.42
6094;BME280;19964;42.060;24.700;2022-07-30T05:29:24;97472.94;;;26.45;53.13
6094;BME280;19964;42.060;24.700;2022-07-30T05:31:51;97481.59;;;26.42;52.98
6094;BME280;19964;42.060;24.700;2022-07-30T05:34:20;97495.38;;;26.69;52.45
6094;BME280;19964;42.060;24.700;2022-07-30T05:36:46;97485.00;;;26.43;54.02
6094;BME280;19964;42.060;24.700;2022-07-30T05:39:13;97506.13;;;26.60;53.19
6094;BME280;19964;42.060;24.700;2022-07-30T05:41:40;97501.38;;;26.66;52.53
6094;BME280;19964;42.060;24.700;2022-07-30T05:44:13;97496.16;;;26.69;53.70
6094;BME280;19964;42.060;24.700;2022-07-30T05:46:40;97485.91;;;26.47;53.76
6094;BME280;19964;42.060;24.700;2022-07-30T05:49:07;97493.66;;;26.73;53.10
6094;BME280;19964;42.060;24.700;2022-07-30T05:51:35;97504.84;;;26.45;52.80
6094;BME280;19964;42.060;24.700;2022-07-30T05:54:02;97482.88;;;26.36;53.21
6094;BME280;19964;42.060;24.700;2022-07-30T05:56:29;97425.41;;;26.32;51.96
6094;BME280;19964;42.060;24.700;2022-07-30T05:58:56;97469.44;;;26.98;53.38
6094;BME280;19964;42.060;24.700;2022-07-30T06:01:23;97495.19;;;27.43;49.66
6094;BME280;19964;42.060;24.700;2022-07-30T06:03:50;97485.47;;;28.10;49.80
6094;BME280;19964;42.060;24.700;2022-07-30T06:06:17;97499.72;;;27.78;49.74
6094;BME280;19964;42.060;24.700;2022-07-30T06:08:45;97510.50;;;27.58;50.89
6094;BME280;19964;42.060;24.700;2022-07-30T06:11:12;97413.56;;;27.10;50.13
6094;BME280;19964;42.060;24.700;2022-07-30T06:13:40;97499.97;;;27.61;50.65
6094;BME280;19964;42.060;24.700;2022-07-30T06:16:07;97490.47;;;28.00;49.47
6094;BME280;19964;42.060;24.700;2022-07-30T06:18:34;97492.81;;;28.01;49.00
6094;BME280;19964;42.060;24.700;2022-07-30T06:21:01;97407.78;;;27.57;49.47
6094;BME280;19964;42.060;24.700;2022-07-30T06:23:28;97498.13;;;28.41;48.51
6094;BME280;19964;42.060;24.700;2022-07-30T06:25:57;97508.28;;;28.79;48.10
6094;BME280;19964;42.060;24.700;2022-07-30T06:28:23;97411.00;;;28.02;48.81
6094;BME280;19964;42.060;24.700;2022-07-30T06:30:50;97487.78;;;28.40;47.63
6094;BME280;19964;42.060;24.700;2022-07-30T06:33:17;97504.88;;;28.39;49.04
6094;BME280;19964;42.060;24.700;2022-07-30T06:35:44;97514.53;;;28.15;48.49
6094;BME280;19964;42.060;24.700;2022-07-30T06:38:11;97513.78;;;28.03;47.67
6094;BME280;19964;42.060;24.700;2022-07-30T06:40:38;97520.72;;;28.59;47.21
6094;BME280;19964;42.060;24.700;2022-07-30T06:43:06;97513.88;;;28.89;49.04
6094;BME280;19964;42.060;24.700;2022-07-30T06:45:33;97448.97;;;28.27;46.75
6094;BME280;19964;42.060;24.700;2022-07-30T06:48:00;97521.13;;;28.34;46.52
6094;BME280;19964;42.060;24.700;2022-07-30T06:50:27;97521.56;;;28.36;48.45
6094;BME280;19964;42.060;24.700;2022-07-30T06:52:54;97530.03;;;28.81;45.53
6094;BME280;19964;42.060;24.700;2022-07-30T06:55:21;97505.13;;;29.04;44.02
6094;BME280;19964;42.060;24.700;2022-07-30T06:57:48;97529.00;;;29.44;44.18
6094;BME280;19964;42.060;24.700;2022-07-30T07:00:16;97513.91;;;28.62;44.83
6094;BME280;19964;42.060;24.700;2022-07-30T07:02:43;97489.06;;;28.73;44.84
6094;BME280;19964;42.060;24.700;2022-07-30T07:05:10;97504.53;;;29.27;43.73
6094;BME280;19964;42.060;24.700;2022-07-30T07:07:37;97495.50;;;29.47;45.48
6094;BME280;19964;42.060;24.700;2022-07-30T07:10:05;97498.97;;;29.82;43.81
6094;BME280;19964;42.060;24.700;2022-07-30T07:12:32;97479.53;;;29.50;44.46
6094;BME280;19964;42.060;24.700;2022-07-30T07:14:59;97492.66;;;29.24;43.87
6094;BME280;19964;42.060;24.700;2022-07-30T07:17:27;97482.28;;;29.54;43.01
6094;BME280;19964;42.060;24.700;2022-07-30T07:19:54;97495.53;;;29.66;43.01
6094;BME280;19964;42.060;24.700;2022-07-30T07:22:21;97478.94;;;30.49;44.05
6094;BME280;19964;42.060;24.700;2022-07-30T07:24:48;97462.63;;;29.97;42.52
6094;BME280;19964;42.060;24.700;2022-07-30T07:27:14;97482.84;;;29.78;43.29
6094;BME280;19964;42.060;24.700;2022-07-30T07:29:41;97481.03;;;29.82;42.68
6094;BME280;19964;42.060;24.700;2022-07-30T07:32:08;97468.56;;;30.66;43.39
6094;BME280;19964;42.060;24.700;2022-07-30T07:34:37;97463.81;;;30.56;41.82
6094;BME280;19964;42.060;24.700;2022-07-30T07:37:04;97486.38;;;30.36;42.64
6094;BME280;19964;42.060;24.700;2022-07-30T07:39:30;97487.25;;;30.63;41.92
6094;BME280;19964;42.060;24.700;2022-07-30T07:41:57;97487.38;;;30.51;41.03
6094;BME280;19964;42.060;24.700;2022-07-30T07:44:24;97483.13;;;30.46;42.54
6094;BME280;19964;42.060;24.700;2022-07-30T07:46:51;97438.81;;;30.49;44.26
6094;BME280;19964;42.060;24.700;2022-07-30T07:49:18;97432.66;;;30.67;41.63
6094;BME280;19964;42.060;24.700;2022-07-30T07:51:46;97478.63;;;31.41;42.17
6094;BME280;19964;42.060;24.700;2022-07-30T07:54:15;97475.97;;;31.67;41.07
6094;BME280;19964;42.060;24.700;2022-07-30T07:56:42;97469.78;;;31.14;42.36
6094;BME280;19964;42.060;24.700;2022-07-30T07:59:09;97430.50;;;31.22;41.71
6094;BME280;19964;42.060;24.700;2022-07-30T08:01:36;97471.50;;;31.78;40.69
6094;BME280;19964;42.060;24.700;2022-07-30T08:04:03;97476.25;;;31.13;42.01
6094;BME280;19964;42.060;24.700;2022-07-30T08:06:30;97473.22;;;31.37;42.06
6094;BME280;19964;42.060;24.700;2022-07-30T08:08:58;97474.47;;;31.70;42.04
6094;BME280;19964;42.060;24.700;2022-07-30T08:11:26;97480.47;;;31.37;41.75
6094;BME280;19964;42.060;24.700;2022-07-30T08:13:53;97445.22;;;31.35;43.26
6094;BME280;19964;42.060;24.700;2022-07-30T08:16:20;97418.25;;;31.21;42.60
6094;BME280;19964;42.060;24.700;2022-07-30T08:18:47;97458.94;;;31.30;41.51
6094;BME280;19964;42.060;24.700;2022-07-30T08:21:14;97469.16;;;31.73;41.23
6094;BME280;19964;42.060;24.700;2022-07-30T08:23:41;97453.94;;;31.28;42.21
6094;BME280;19964;42.060;24.700;2022-07-30T08:26:09;97451.41;;;31.13;42.53
6094;BME280;19964;42.060;24.700;2022-07-30T08:28:36;97407.63;;;30.79;41.85
6094;BME280;19964;42.060;24.700;2022-07-30T08:31:03;97464.22;;;31.49;41.54
6094;BME280;19964;42.060;24.700;2022-07-30T08:33:30;97427.84;;;31.78;40.38
6094;BME280;19964;42.060;24.700;2022-07-30T08:35:57;97460.19;;;31.62;42.02
6094;BME280;19964;42.060;24.700;2022-07-30T08:38:23;97452.50;;;31.34;41.44
6094;BME280;19964;42.060;24.700;2022-07-30T08:40:53;97453.66;;;31.37;41.72
6094;BME280;19964;42.060;24.700;2022-07-30T08:43:23;97452.06;;;31.85;41.04
6094;BME280;19964;42.060;24.700;2022-07-30T08:45:51;97428.66;;;32.11;39.65
6094;BME280;19964;42.060;24.700;2022-07-30T08:48:20;97412.28;;;32.20;41.22
6094;BME280;19964;42.060;24.700;2022-07-30T08:50:47;97443.75;;;32.26;38.96
6094;BME280;19964;42.060;24.700;2022-07-30T08:53:14;97344.84;;;31.85;39.07
6094;BME280;19964;42.060;24.700;2022-07-30T08:55:41;97443.25;;;32.47;39.60
6094;BME280;19964;42.060;24.700;2022-07-30T08:58:17;97397.34;;;31.89;41.59
6094;BME280;19964;42.060;24.700;2022-07-30T09:00:51;97442.09;;;32.48;39.56
6094;BME280;19964;42.060;24.700;2022-07-30T09:03:18;97441.38;;;32.51;40.35
6094;BME280;19964;42.060;24.700;2022-07-30T09:05:44;97430.03;;;32.31;38.65
6094;BME280;19964;42.060;24.700;2022-07-30T09:08:11;97426.16;;;32.29;39.76
6094;BME280;19964;42.060;24.700;2022-07-30T09:10:38;97422.81;;;32.76;39.15
6094;BME280;19964;42.060;24.700;2022-07-30T09:13:21;97411.78;;;32.84;38.72
6094;BME280;19964;42.060;24.700;2022-07-30T09:15:48;97407.72;;;32.61;37.65
6094;BME280;19964;42.060;24.700;2022-07-30T09:18:25;97412.31;;;32.23;38.31
6094;BME280;19964;42.060;24.700;2022-07-30T09:20:52;97419.00;;;32.03;38.71
6094;BME280;19964;42.060;24.700;2022-07-30T09:23:19;97403.78;;;32.95;38.07
6094;BME280;19964;42.060;24.700;2022-07-30T09:25:47;97399.25;;;33.02;37.74
6094;BME280;19964;42.060;24.700;2022-07-30T09:28:14;97372.75;;;32.97;38.81
6094;BME280;19964;42.060;24.700;2022-07-30T09:30:47;97368.00;;;33.38;36.03
6094;BME280;19964;42.060;24.700;2022-07-30T09:33:15;97399.63;;;33.01;38.08
6094;BME280;19964;42.060;24.700;2022-07-30T09:35:57;97379.72;;;32.58;38.57
6094;BME280;19964;42.060;24.700;2022-07-30T09:38:24;97383.72;;;33.29;37.22
6094;BME280;19964;42.060;24.700;2022-07-30T09:40:52;97385.63;;;33.28;37.25
6094;BME280;19964;42.060;24.700;2022-07-30T09:43:20;97385.38;;;33.51;39.24
6094;BME280;19964;42.060;24.700;2022-07-30T09:45:51;97361.19;;;32.06;34.88
6094;BME280;19964;42.060;24.700;2022-07-30T09:48:20;97400.94;;;31.97;34.62
6094;BME280;19964;42.060;24.700;2022-07-30T09:50:48;97387.66;;;32.11;34.12
6094;BME280;19964;42.060;24.700;2022-07-30T09:53:17;97389.59;;;32.10;34.30
6094;BME280;19964;42.060;24.700;2022-07-30T09:55:44;97352.03;;;32.10;34.61
6094;BME280;19964;42.060;24.700;2022-07-30T09:58:11;97385.91;;;32.25;34.99
6094;BME280;19964;42.060;24.700;2022-07-30T10:00:39;97363.97;;;32.53;34.24
6094;BME280;19964;42.060;24.700;2022-07-30T10:03:16;97384.66;;;32.53;33.57
6094;BME280;19964;42.060;24.700;2022-07-30T10:05:51;97372.88;;;32.24;33.81
6094;BME280;19964;42.060;24.700;2022-07-30T10:08:20;97302.16;;;32.02;34.20
6094;BME280;19964;42.060;24.700;2022-07-30T10:11:03;97370.88;;;32.58;33.66
6094;BME280;19964;42.060;24.700;2022-07-30T10:13:30;97356.25;;;31.78;35.19
6094;BME280;19964;42.060;24.700;2022-07-30T10:15:58;97354.50;;;31.60;34.79
6094;BME280;19964;42.060;24.700;2022-07-30T10:18:26;97309.31;;;31.58;35.17
6094;BME280;19964;42.060;24.700;2022-07-30T10:20:54;97363.50;;;32.07;35.57
6094;BME280;19964;42.060;24.700;2022-07-30T10:23:22;97320.91;;;31.99;35.56
6094;BME280;19964;42.060;24.700;2022-07-30T10:25:54;97333.53;;;32.89;35.45
6094;BME280;19964;42.060;24.700;2022-07-30T10:28:21;97323.28;;;32.98;34.60
6094;BME280;19964;42.060;24.700;2022-07-30T10:30:49;97343.25;;;33.01;35.32
6094;BME280;19964;42.060;24.700;2022-07-30T10:33:17;97340.75;;;32.75;34.22
6094;BME280;19964;42.060;24.700;2022-07-30T10:35:45;97332.69;;;33.36;33.56
6094;BME280;19964;42.060;24.700;2022-07-30T10:38:14;97335.25;;;33.08;33.64
6094;BME280;19964;42.060;24.700;2022-07-30T10:40:47;97335.25;;;33.08;34.40
6094;BME280;19964;42.060;24.700;2022-07-30T10:43:43;97334.47;;;32.57;34.43
6094;BME280;19964;42.060;24.700;2022-07-30T10:46:22;97292.66;;;33.10;34.07
6094;BME280;19964;42.060;24.700;2022-07-30T10:48:52;97319.38;;;32.92;34.21
6094;BME280;19964;42.060;24.700;2022-07-30T10:51:20;97324.38;;;32.94;33.14
6094;BME280;19964;42.060;24.700;2022-07-30T10:53:47;97328.38;;;33.14;33.79
6094;BME280;19964;42.060;24.700;2022-07-30T10:56:18;97304.41;;;32.91;33.48
6094;BME280;19964;42.060;24.700;2022-07-30T10:59:03;97280.75;;;33.07;33.15
6094;BME280;19964;42.060;24.700;2022-07-30T11:02:08;97319.75;;;32.91;32.99
6094;BME280;19964;42.060;24.700;2022-07-30T11:04:35;97299.06;;;32.95;34.61
6094;BME280;19964;42.060;24.700;2022-07-30T11:07:27;97305.56;;;32.43;32.57
6094;BME280;19964;42.060;24.700;2022-07-30T11:09:57;97244.44;;;32.15;34.85
6094;BME280;19964;42.060;24.700;2022-07-30T11:12:54;97289.94;;;32.49;33.58
6094;BME280;19964;42.060;24.700;2022-07-30T11:15:21;97265.78;;;32.49;33.54
6094;BME280;19964;42.060;24.700;2022-07-30T11:17:59;97278.91;;;32.61;33.63
6094;BME280;19964;42.060;24.700;2022-07-30T11:20:26;97241.47;;;32.31;33.39
6094;BME280;19964;42.060;24.700;2022-07-30T11:22:54;97243.59;;;32.55;34.35
6094;BME280;19964;42.060;24.700;2022-07-30T11:25:40;97268.50;;;32.56;29.45
6094;BME280;19964;42.060;24.700;2022-07-30T11:28:35;97234.13;;;32.75;31.70
6094;BME280;19964;42.060;24.700;2022-07-30T11:31:02;97275.41;;;33.14;32.88
6094;BME280;19964;42.060;24.700;2022-07-30T11:33:30;97276.09;;;32.97;33.08
6094;BME280;19964;42.060;24.700;2022-07-30T11:36:09;97270.16;;;32.71;33.68
6094;BME280;19964;42.060;24.700;2022-07-30T11:38:56;97244.44;;;32.19;32.34
6094;BME280;19964;42.060;24.700;2022-07-30T11:41:23;97269.34;;;32.63;30.62
6094;BME280;19964;42.060;24.700;2022-07-30T11:44:26;97264.72;;;32.64;31.12
6094;BME280;19964;42.060;24.700;2022-07-30T11:46:54;97214.09;;;32.55;30.68
6094;BME280;19964;42.060;24.700;2022-07-30T11:49:21;97251.59;;;33.13;32.78
6094;BME280;19964;42.060;24.700;2022-07-30T11:51:48;97253.56;;;33.26;29.35
6094;BME280;19964;42.060;24.700;2022-07-30T11:54:16;97248.22;;;33.34;29.78
6094;BME280;19964;42.060;24.700;2022-07-30T11:56:50;97246.28;;;33.27;30.23
6094;BME280;19964;42.060;24.700;2022-07-30T11:59:18;97212.44;;;33.08;29.70
6094;BME280;19964;42.060;24.700;2022-07-30T12:01:50;97241.09;;;32.87;30.98
6094;BME280;19964;42.060;24.700;2022-07-30T12:04:17;97231.66;;;33.14;32.06
6094;BME280;19964;42.060;24.700;2022-07-30T12:06:45;97238.78;;;32.82;30.01
6094;BME280;19964;42.060;24.700;2022-07-30T12:09:20;97226.69;;;33.19;30.43
6094;BME280;19964;42.060;24.700;2022-07-30T12:11:53;97206.97;;;32.91;30.49
6094;BME280;19964;42.060;24.700;2022-07-30T12:14:19;97227.41;;;33.06;31.41
6094;BME280;19964;42.060;24.700;2022-07-30T12:16:52;97209.63;;;32.84;29.60
6094;BME280;19964;42.060;24.700;2022-07-30T12:19:19;97218.41;;;32.74;29.79
6094;BME280;19964;42.060;24.700;2022-07-30T12:21:47;97216.38;;;32.57;31.38
6094;BME280;19964;42.060;24.700;2022-07-30T12:24:14;97198.00;;;32.59;31.14
6094;BME280;19964;42.060;24.700;2022-07-30T12:26:41;97220.06;;;32.96;31.11
6094;BME280;19964;42.060;24.700;2022-07-30T12:29:09;97212.81;;;33.07;30.91
6094;BME280;19964;42.060;24.700;2022-07-30T12:31:38;97204.44;;;33.19;30.05
6094;BME280;19964;42.060;24.700;2022-07-30T12:34:19;97202.94;;;33.28;29.94
6094;BME280;19964;42.060;24.700;2022-07-30T12:36:46;97196.88;;;33.53;30.91
6094;BME280;19964;42.060;24.700;2022-07-30T12:39:18;97188.81;;;33.63;30.87
6094;BME280;19964;42.060;24.700;2022-07-30T12:41:46;97181.50;;;33.53;31.27
6094;BME280;19964;42.060;24.700;2022-07-30T12:44:36;97182.56;;;33.20;31.60
6094;BME280;19964;42.060;24.700;2022-07-30T12:47:03;97174.44;;;33.06;31.38
6094;BME280;19964;42.060;24.700;2022-07-30T12:49:32;97168.00;;;33.21;32.50
6094;BME280;19964;42.060;24.700;2022-07-30T12:51:59;97169.94;;;33.39;32.35
6094;BME280;19964;42.060;24.700;2022-07-30T12:54:27;97163.34;;;33.11;32.76
6094;BME280;19964;42.060;24.700;2022-07-30T12:56:58;97144.56;;;33.18;34.08
6094;BME280;19964;42.060;24.700;2022-07-30T12:59:26;97163.00;;;33.23;32.20
6094;BME280;19964;42.060;24.700;2022-07-30T13:01:53;97138.00;;;33.05;33.02
6094;BME280;19964;42.060;24.700;2022-07-30T13:04:21;97118.88;;;33.28;31.47
6094;BME280;19964;42.060;24.700;2022-07-30T13:07:07;97154.16;;;33.19;32.16
6094;BME280;19964;42.060;24.700;2022-07-30T13:09:35;97127.19;;;32.88;31.23
6094;BME280;19964;42.060;24.700;2022-07-30T13:12:03;97114.50;;;32.81;31.44